createdAt,value
2023-03-16T00:00:49.540Z,-1.43
2023-03-16T00:03:36.119Z,-1.45
2023-03-16T00:06:24.507Z,-1.47
2023-03-16T00:09:12.756Z,-1.48
2023-03-16T00:12:03.046Z,-1.49
2023-03-16T00:14:49.810Z,-1.51
2023-03-16T00:17:36.425Z,-1.58
2023-03-16T00:20:23.060Z,-1.58
2023-03-16T00:23:09.500Z,-1.60
2023-03-16T00:25:59.352Z,-1.61
2023-03-16T00:28:45.407Z,-1.63
2023-03-16T00:31:33.264Z,-1.63
2023-03-16T00:34:19.704Z,-1.65
2023-03-16T00:37:06.480Z,-1.67
2023-03-16T00:39:55.552Z,-1.72
2023-03-16T00:42:42.001Z,-1.79
2023-03-16T00:45:28.269Z,-1.77
2023-03-16T00:48:15.832Z,-1.78
2023-03-16T00:51:05.912Z,-1.77
2023-03-16T00:53:52.586Z,-1.75
2023-03-16T00:56:39.136Z,-1.73
2023-03-16T00:59:25.853Z,-1.72
2023-03-16T01:02:14.329Z,-1.70
2023-03-16T01:05:02.371Z,-1.68
2023-03-16T01:07:48.665Z,-1.65
2023-03-16T01:10:36.198Z,-1.62
2023-03-16T01:13:23.021Z,-1.64
2023-03-16T01:16:10.432Z,-1.59
2023-03-16T01:18:57.045Z,-1.60
2023-03-16T01:21:43.706Z,-1.62
2023-03-16T01:24:30.675Z,-1.62
2023-03-16T01:27:17.212Z,-1.63
2023-03-16T01:30:05.749Z,-1.62
2023-03-16T01:32:52.173Z,-1.63
2023-03-16T01:35:38.868Z,-1.63
2023-03-16T01:38:25.734Z,-1.64
2023-03-16T01:41:13.872Z,-1.66
2023-03-16T01:44:00.118Z,-1.68
2023-03-16T01:46:48.297Z,-1.70
2023-03-16T01:49:37.539Z,-1.73
2023-03-16T01:52:33.216Z,-1.76
2023-03-16T01:55:19.434Z,-1.78
2023-03-16T01:58:05.963Z,-1.79
2023-03-16T02:00:53.384Z,-1.80
2023-03-16T02:03:42.942Z,-1.80
2023-03-16T02:06:37.380Z,-1.79
2023-03-16T02:09:25.809Z,-1.78
2023-03-16T02:12:17.310Z,-1.77
2023-03-16T02:15:06.721Z,-1.76
2023-03-16T02:17:53.749Z,-1.77
2023-03-16T02:20:58.180Z,-1.76
2023-03-16T02:23:46.502Z,-1.73
2023-03-16T02:26:51.202Z,-1.70
2023-03-16T02:30:06.084Z,-1.67
2023-03-16T02:32:58.037Z,-1.64
2023-03-16T02:35:44.609Z,-1.63
2023-03-16T02:38:31.411Z,-1.64
2023-03-16T02:41:20.436Z,-1.65
2023-03-16T02:44:24.735Z,-1.65
2023-03-16T02:47:41.116Z,-1.64
2023-03-16T02:50:27.889Z,-1.63
2023-03-16T02:53:16.284Z,-1.64
2023-03-16T02:56:03.515Z,-1.62
2023-03-16T02:58:51.249Z,-1.62
2023-03-16T03:01:38.510Z,-1.63
2023-03-16T03:04:24.772Z,-1.65
2023-03-16T03:07:13.639Z,-1.66
2023-03-16T03:10:29.331Z,-1.71
2023-03-16T03:13:17.477Z,-1.74
2023-03-16T03:16:04.466Z,-1.76
2023-03-16T03:18:52.230Z,-1.77
2023-03-16T03:21:40.470Z,-1.79
2023-03-16T03:24:27.509Z,-1.80
2023-03-16T03:27:14.249Z,-1.83
2023-03-16T03:30:01.236Z,-1.86
2023-03-16T03:32:48.427Z,-1.87
2023-03-16T03:35:36.803Z,-1.90
2023-03-16T03:38:25.115Z,-1.93
2023-03-16T03:41:12.200Z,-1.94
2023-03-16T03:44:00.290Z,-1.97
2023-03-16T03:46:47.691Z,-1.99
2023-03-16T03:49:34.120Z,-1.99
2023-03-16T03:52:20.496Z,-2.00
2023-03-16T03:55:08.948Z,-2.00
2023-03-16T03:57:55.244Z,-2.00
2023-03-16T04:00:42.018Z,-2.00
2023-03-16T04:03:28.503Z,-2.00
2023-03-16T04:06:14.817Z,-2.00
2023-03-16T04:09:01.193Z,-2.00
2023-03-16T04:11:49.621Z,-2.01
2023-03-16T04:14:35.993Z,-2.04
2023-03-16T04:17:24.603Z,-2.04
2023-03-16T04:20:18.526Z,-2.04
2023-03-16T04:23:05.294Z,-2.03
2023-03-16T04:25:54.206Z,-2.03
2023-03-16T04:28:42.639Z,-2.01
2023-03-16T04:31:29.759Z,-1.99
2023-03-16T04:34:16.583Z,-1.98
2023-03-16T04:37:03.840Z,-1.99
2023-03-16T04:39:52.840Z,-1.99
2023-03-16T04:42:39.487Z,-2.04
2023-03-16T04:45:26.154Z,-1.98
2023-03-16T04:48:12.866Z,-1.96
2023-03-16T04:51:00.356Z,-1.93
2023-03-16T04:53:48.512Z,-1.89
2023-03-16T04:56:41.152Z,-1.84
2023-03-16T04:59:32.441Z,-1.80
2023-03-16T05:02:38.100Z,-1.77
2023-03-16T05:05:24.951Z,-1.74
2023-03-16T05:08:11.586Z,-1.71
2023-03-16T05:10:59.659Z,-1.69
2023-03-16T05:13:47.904Z,-1.68
2023-03-16T05:16:34.700Z,-1.66
2023-03-16T05:19:21.150Z,-1.65
2023-03-16T05:22:08.517Z,-1.65
2023-03-16T05:24:56.208Z,-1.66
2023-03-16T05:27:53.322Z,-1.66
2023-03-16T05:30:48.192Z,-1.65
2023-03-16T05:33:38.798Z,-1.65
2023-03-16T05:36:28.765Z,-1.63
2023-03-16T05:39:19.940Z,-1.60
2023-03-16T05:42:07.923Z,-1.54
2023-03-16T05:45:17.148Z,-1.48
2023-03-16T05:48:20.658Z,-1.42
2023-03-16T05:51:10.655Z,-1.38
2023-03-16T05:53:57.846Z,-1.31
2023-03-16T05:56:50.694Z,-1.25
2023-03-16T05:59:37.507Z,-1.19
2023-03-16T06:02:27.111Z,-1.14
2023-03-16T06:05:15.045Z,-1.07
2023-03-16T06:08:02.158Z,-0.99
2023-03-16T06:10:48.984Z,-0.88
2023-03-16T06:13:37.469Z,-0.75
2023-03-16T06:16:24.471Z,-0.50
2023-03-16T06:19:11.296Z,-0.24
2023-03-16T06:21:58.113Z,0.08
2023-03-16T06:24:45.138Z,0.45
2023-03-16T06:27:32.688Z,0.86
2023-03-16T06:30:40.568Z,1.29
2023-03-16T06:33:27.782Z,1.59
2023-03-16T06:36:14.470Z,1.86
2023-03-16T06:39:06.217Z,2.09
2023-03-16T06:42:06.041Z,2.26
2023-03-16T06:44:52.785Z,2.39
2023-03-16T06:47:39.319Z,2.50
2023-03-16T06:50:27.071Z,2.64
2023-03-16T06:53:13.887Z,2.73
2023-03-16T06:56:00.739Z,2.79
2023-03-16T06:58:48.701Z,2.88
2023-03-16T07:01:35.204Z,3.17
2023-03-16T07:04:22.338Z,3.83
2023-03-16T07:07:09.783Z,4.48
2023-03-16T07:09:56.376Z,5.02
2023-03-16T07:12:43.848Z,5.13
2023-03-16T07:15:30.758Z,4.90
2023-03-16T07:18:19.081Z,4.77
2023-03-16T07:21:06.092Z,5.41
2023-03-16T07:24:12.301Z,6.07
2023-03-16T07:27:01.278Z,6.12
2023-03-16T07:29:53.592Z,5.68
2023-03-16T07:32:41.756Z,5.35
2023-03-16T07:35:29.228Z,5.18
2023-03-16T07:38:16.141Z,5.00
2023-03-16T07:41:21.127Z,4.74
2023-03-16T07:44:07.986Z,4.44
2023-03-16T07:46:55.084Z,4.12
2023-03-16T07:49:43.743Z,4.00
2023-03-16T07:52:30.710Z,4.06
2023-03-16T07:55:17.555Z,4.08
2023-03-16T07:58:05.622Z,4.25
2023-03-16T08:00:58.190Z,4.54
2023-03-16T08:03:44.537Z,4.87
2023-03-16T08:06:31.288Z,5.91
2023-03-16T08:09:18.208Z,7.66
2023-03-16T08:12:06.605Z,9.41
2023-03-16T08:14:54.069Z,11.02
2023-03-16T08:17:45.966Z,11.66
2023-03-16T08:20:36.803Z,11.79
2023-03-16T08:23:25.254Z,11.55
2023-03-16T08:26:12.233Z,12.39
2023-03-16T08:29:02.588Z,12.62
2023-03-16T08:31:49.277Z,13.09
2023-03-16T08:34:45.424Z,12.59
2023-03-16T08:37:32.399Z,11.56
2023-03-16T08:40:21.898Z,10.60
2023-03-16T08:43:09.493Z,9.64
2023-03-16T08:45:55.806Z,8.58
2023-03-16T08:48:43.733Z,7.77
2023-03-16T08:51:30.554Z,7.08
2023-03-16T08:54:17.127Z,6.58
2023-03-16T08:57:03.838Z,6.34
2023-03-16T08:59:50.888Z,6.22
2023-03-16T09:02:38.005Z,6.15
2023-03-16T09:05:25.215Z,5.99
2023-03-16T09:08:12.142Z,5.88
2023-03-16T09:11:05.209Z,5.86
2023-03-16T09:13:52.997Z,5.88
2023-03-16T09:16:39.800Z,5.66
2023-03-16T09:19:27.089Z,5.44
2023-03-16T09:22:13.445Z,5.23
2023-03-16T09:25:00.117Z,5.13
2023-03-16T09:27:47.285Z,5.05
2023-03-16T09:30:34.071Z,4.95
2023-03-16T09:33:22.164Z,4.81
2023-03-16T09:36:10.936Z,4.77
2023-03-16T09:38:57.587Z,4.73
2023-03-16T09:42:15.117Z,4.75
2023-03-16T09:45:40.892Z,5.25
2023-03-16T09:48:32.220Z,5.57
2023-03-16T09:51:43.000Z,5.54
2023-03-16T09:54:45.772Z,5.42
2023-03-16T09:57:40.566Z,5.26
2023-03-16T10:00:33.208Z,5.17
2023-03-16T10:03:50.589Z,5.10
2023-03-16T10:06:51.572Z,5.07
2023-03-16T10:10:02.125Z,5.11
2023-03-16T10:12:53.396Z,5.08
2023-03-16T10:15:43.719Z,5.10
2023-03-16T10:18:38.340Z,5.24
2023-03-16T10:21:24.638Z,5.51
2023-03-16T10:25:06.087Z,5.78
2023-03-16T10:27:53.568Z,5.95
2023-03-16T10:30:42.927Z,5.93
2023-03-16T10:33:32.938Z,6.00
2023-03-16T10:36:34.149Z,6.32
2023-03-16T10:39:20.711Z,6.94
2023-03-16T10:42:19.379Z,7.40
2023-03-16T10:45:19.382Z,7.67
2023-03-16T10:48:19.233Z,7.81
2023-03-16T10:51:14.915Z,7.83
2023-03-16T10:54:15.007Z,7.65
2023-03-16T10:57:20.217Z,7.38
2023-03-16T11:00:31.277Z,7.17
2023-03-16T11:03:27.144Z,7.03
2023-03-16T11:06:24.121Z,6.97
2023-03-16T11:09:20.294Z,6.98
2023-03-16T11:12:29.581Z,6.88
2023-03-16T11:15:29.331Z,6.62
2023-03-16T11:18:29.124Z,6.48
2023-03-16T11:21:41.578Z,6.61
2023-03-16T11:25:06.732Z,6.79
2023-03-16T11:28:12.353Z,6.58
2023-03-16T11:31:08.002Z,6.27
2023-03-16T11:33:56.863Z,6.21
2023-03-16T11:36:56.702Z,6.62
2023-03-16T11:40:15.051Z,7.06
2023-03-16T11:43:54.733Z,7.25
2023-03-16T11:47:22.618Z,6.94
2023-03-16T11:51:04.153Z,6.29
2023-03-16T11:55:01.230Z,5.64
2023-03-16T11:58:28.239Z,5.49
2023-03-16T12:01:23.092Z,6.40
2023-03-16T12:04:33.149Z,7.19
2023-03-16T12:08:03.764Z,7.87
2023-03-16T12:11:04.990Z,8.01
2023-03-16T12:14:11.892Z,7.85
2023-03-16T12:17:25.564Z,7.48
2023-03-16T12:20:26.238Z,6.83
2023-03-16T12:23:26.724Z,6.26
2023-03-16T12:26:14.701Z,5.95
2023-03-16T12:29:14.076Z,6.10
2023-03-16T12:32:14.700Z,6.68
2023-03-16T12:35:50.353Z,7.30
2023-03-16T12:39:09.415Z,7.79
2023-03-16T12:42:24.126Z,7.89
2023-03-16T12:45:22.134Z,7.93
2023-03-16T12:48:20.927Z,7.95
2023-03-16T12:51:07.241Z,7.80
2023-03-16T12:53:54.859Z,7.51
2023-03-16T12:56:46.939Z,7.39
2023-03-16T12:59:52.340Z,7.34
2023-03-16T13:02:53.122Z,6.97
2023-03-16T13:05:50.363Z,6.59
2023-03-16T13:08:43.739Z,6.28
2023-03-16T13:11:49.558Z,6.15
2023-03-16T13:14:41.124Z,6.06
2023-03-16T13:17:33.105Z,6.06
2023-03-16T13:20:32.390Z,6.08
2023-03-16T13:23:26.883Z,6.10
2023-03-16T13:26:16.125Z,6.27
2023-03-16T13:29:23.220Z,6.38
2023-03-16T13:32:19.246Z,6.48
2023-03-16T13:35:13.370Z,6.59
2023-03-16T13:38:13.130Z,6.57
2023-03-16T13:41:17.952Z,6.43
2023-03-16T13:44:04.759Z,6.24
2023-03-16T13:46:52.043Z,5.97
2023-03-16T13:49:50.192Z,5.70
2023-03-16T13:52:36.214Z,5.53
2023-03-16T13:55:35.286Z,5.58
2023-03-16T13:58:35.859Z,5.59
2023-03-16T14:01:28.001Z,5.60
2023-03-16T14:04:19.326Z,5.59
2023-03-16T14:07:19.874Z,5.52
2023-03-16T14:10:12.592Z,5.51
2023-03-16T14:13:32.419Z,5.57
2023-03-16T14:16:21.560Z,5.60
2023-03-16T14:19:25.541Z,5.54
2023-03-16T14:22:22.881Z,5.53
2023-03-16T14:25:22.959Z,5.40
2023-03-16T14:28:15.260Z,5.39
2023-03-16T14:31:09.549Z,5.43
2023-03-16T14:34:08.118Z,5.43
2023-03-16T14:37:08.775Z,5.40
2023-03-16T14:40:05.404Z,5.40
2023-03-16T14:42:59.455Z,5.38
2023-03-16T14:45:46.037Z,5.35
2023-03-16T14:48:33.246Z,5.31
2023-03-16T14:51:21.482Z,5.18
2023-03-16T14:54:14.298Z,5.02
2023-03-16T14:57:05.136Z,4.96
2023-03-16T14:59:55.127Z,4.88
2023-03-16T15:02:55.606Z,4.80
2023-03-16T15:05:47.178Z,4.77
2023-03-16T15:08:41.511Z,4.76
2023-03-16T15:11:28.997Z,4.73
2023-03-16T15:14:35.299Z,4.66
2023-03-16T15:17:22.452Z,4.57
2023-03-16T15:20:14.648Z,4.52
2023-03-16T15:23:04.244Z,4.48
2023-03-16T15:25:56.716Z,4.47
2023-03-16T15:28:43.454Z,4.48
2023-03-16T15:31:29.889Z,4.46
2023-03-16T15:34:16.749Z,4.38
2023-03-16T15:37:03.665Z,4.32
2023-03-16T15:39:50.892Z,4.23
2023-03-16T15:42:37.655Z,4.15
2023-03-16T15:45:24.845Z,4.09
2023-03-16T15:48:14.553Z,4.03
2023-03-16T15:51:09.339Z,3.94
2023-03-16T15:54:08.891Z,3.83
2023-03-16T15:56:55.480Z,3.72
2023-03-16T15:59:41.760Z,3.65
2023-03-16T16:02:30.728Z,3.54
2023-03-16T16:05:17.055Z,3.39
2023-03-16T16:08:03.581Z,3.34
2023-03-16T16:10:52.911Z,3.29
2023-03-16T16:13:44.740Z,3.20
2023-03-16T16:16:34.029Z,3.10
2023-03-16T16:19:20.997Z,3.00
2023-03-16T16:22:13.571Z,2.88
2023-03-16T16:25:00.029Z,2.76
2023-03-16T16:27:46.514Z,2.65
2023-03-16T16:30:33.767Z,2.51
2023-03-16T16:33:25.495Z,2.38
2023-03-16T16:36:19.701Z,2.24
2023-03-16T16:39:07.011Z,2.11
2023-03-16T16:41:55.812Z,1.98
2023-03-16T16:44:43.194Z,1.86
2023-03-16T16:47:30.284Z,1.73
2023-03-16T16:50:17.933Z,1.60
2023-03-16T16:53:20.279Z,1.48
2023-03-16T16:56:13.268Z,1.35
2023-03-16T16:59:14.208Z,1.25
2023-03-16T17:02:12.674Z,1.13
2023-03-16T17:04:59.074Z,1.05
2023-03-16T17:07:45.598Z,0.98
2023-03-16T17:10:32.724Z,0.91
2023-03-16T17:13:31.210Z,0.85
2023-03-16T17:16:22.323Z,0.79
2023-03-16T17:19:24.545Z,0.73
2023-03-16T17:22:24.735Z,0.65
2023-03-16T17:25:11.176Z,0.56
2023-03-16T17:27:57.632Z,0.46
2023-03-16T17:30:47.584Z,0.37
2023-03-16T17:33:34.193Z,0.27
2023-03-16T17:36:22.144Z,0.17
2023-03-16T17:39:24.393Z,0.09
2023-03-16T17:42:17.944Z,0.02
2023-03-16T17:45:14.689Z,-0.01
2023-03-16T17:48:01.809Z,-0.04
2023-03-16T17:50:49.004Z,-0.09
2023-03-16T17:53:35.717Z,-0.13
2023-03-16T17:56:26.208Z,-0.19
2023-03-16T17:59:20.529Z,-0.26
2023-03-16T18:02:51.087Z,-0.31
2023-03-16T18:05:38.156Z,-0.40
2023-03-16T18:08:28.772Z,-0.48
2023-03-16T18:11:47.566Z,-0.58
2023-03-16T18:14:39.013Z,-0.67
2023-03-16T18:17:31.861Z,-0.73
2023-03-16T18:20:32.166Z,-0.78
2023-03-16T18:23:20.955Z,-0.85
2023-03-16T18:26:08.388Z,-0.90
2023-03-16T18:28:54.939Z,-0.97
2023-03-16T18:31:41.901Z,-1.06
2023-03-16T18:34:34.233Z,-1.13
2023-03-16T18:37:24.683Z,-1.22
2023-03-16T18:40:19.107Z,-1.32
2023-03-16T18:43:06.083Z,-1.42
2023-03-16T18:45:54.720Z,-1.49
2023-03-16T18:48:41.607Z,-1.56
2023-03-16T18:51:29.494Z,-1.58
2023-03-16T18:54:38.892Z,-1.60
2023-03-16T18:57:28.070Z,-1.61
2023-03-16T19:00:20.944Z,-1.63
2023-03-16T19:03:23.525Z,-1.66
2023-03-16T19:06:18.651Z,-1.70
2023-03-16T19:09:19.277Z,-1.75
2023-03-16T19:12:08.071Z,-1.82
2023-03-16T19:14:54.676Z,-1.86
2023-03-16T19:17:41.580Z,-1.89
2023-03-16T19:20:32.419Z,-1.91
2023-03-16T19:23:34.974Z,-1.89
2023-03-16T19:26:22.340Z,-1.91
2023-03-16T19:29:12.728Z,-1.91
2023-03-16T19:32:00.019Z,-1.93
2023-03-16T19:34:47.018Z,-1.96
2023-03-16T19:37:33.811Z,-2.00
2023-03-16T19:40:24.367Z,-2.06
2023-03-16T19:43:19.959Z,-2.09
2023-03-16T19:46:14.529Z,-2.10
2023-03-16T19:49:00.969Z,-2.11
2023-03-16T19:51:50.945Z,-2.10
2023-03-16T19:54:39.762Z,-2.10
2023-03-16T19:57:28.297Z,-2.13
2023-03-16T20:00:22.608Z,-2.17
2023-03-16T20:03:10.475Z,-2.23
2023-03-16T20:05:58.045Z,-2.28
2023-03-16T20:08:46.110Z,-2.31
2023-03-16T20:11:33.019Z,-2.29
2023-03-16T20:14:32.850Z,-2.28
2023-03-16T20:17:28.396Z,-2.30
2023-03-16T20:20:33.674Z,-2.33
2023-03-16T20:23:28.657Z,-2.41
2023-03-16T20:26:27.012Z,-2.47
2023-03-16T20:29:31.495Z,-2.53
2023-03-16T20:32:30.108Z,-2.60
2023-03-16T20:35:27.899Z,-2.67
2023-03-16T20:38:16.164Z,-2.61
2023-03-16T20:41:02.586Z,-2.60
2023-03-16T20:43:49.415Z,-2.57
2023-03-16T20:46:38.171Z,-2.56
2023-03-16T20:49:32.252Z,-2.57
2023-03-16T20:52:26.822Z,-2.63
2023-03-16T20:55:17.294Z,-2.68
2023-03-16T20:58:16.023Z,-2.73
2023-03-16T21:01:03.107Z,-2.75
2023-03-16T21:03:54.557Z,-2.75
2023-03-16T21:06:43.147Z,-2.75
2023-03-16T21:09:32.643Z,-2.75
2023-03-16T21:12:33.060Z,-2.77
2023-03-16T21:15:23.731Z,-2.79
2023-03-16T21:18:18.153Z,-2.81
2023-03-16T21:21:04.788Z,-2.82
2023-03-16T21:23:51.309Z,-2.81
2023-03-16T21:26:39.646Z,-2.79
2023-03-16T21:29:26.842Z,-2.76
2023-03-16T21:32:21.847Z,-2.74
2023-03-16T21:35:14.653Z,-2.72
2023-03-16T21:38:11.955Z,-2.72
2023-03-16T21:40:59.261Z,-2.75
2023-03-16T21:43:46.573Z,-2.79
2023-03-16T21:46:33.114Z,-2.83
2023-03-16T21:49:19.940Z,-2.89
2023-03-16T21:52:23.050Z,-2.91
2023-03-16T21:55:23.926Z,-2.93
2023-03-16T21:58:10.726Z,-2.94
2023-03-16T22:00:57.825Z,-2.95
2023-03-16T22:03:50.870Z,-2.95
2023-03-16T22:06:39.061Z,-2.93
2023-03-16T22:09:29.273Z,-2.92
2023-03-16T22:12:16.148Z,-2.93
2023-03-16T22:15:02.496Z,-2.95
2023-03-16T22:17:48.878Z,-2.96
2023-03-16T22:20:35.967Z,-2.98
2023-03-16T22:23:36.906Z,-2.99
2023-03-16T22:26:24.255Z,-2.99
2023-03-16T22:29:26.227Z,-2.95
2023-03-16T22:32:20.437Z,-2.90
2023-03-16T22:35:34.015Z,-2.86
2023-03-16T22:38:21.904Z,-2.86
2023-03-16T22:41:14.945Z,-2.88
2023-03-16T22:44:01.904Z,-2.88
2023-03-16T22:46:49.100Z,-2.88
2023-03-16T22:49:35.331Z,-2.87
2023-03-16T22:52:27.803Z,-2.85
2023-03-16T22:55:38.580Z,-2.81
2023-03-16T22:58:35.712Z,-2.78
2023-03-16T23:01:30.416Z,-2.76
2023-03-16T23:04:29.475Z,-2.73
2023-03-16T23:07:17.087Z,-2.71
2023-03-16T23:10:04.636Z,-2.72
2023-03-16T23:12:52.961Z,-2.69
2023-03-16T23:15:39.524Z,-2.60
2023-03-16T23:18:26.849Z,-2.53
2023-03-16T23:21:16.844Z,-2.47
2023-03-16T23:24:04.641Z,-2.40
2023-03-16T23:26:52.508Z,-2.32
2023-03-16T23:29:39.291Z,-2.27
2023-03-16T23:32:26.207Z,-2.23
2023-03-16T23:35:21.390Z,-2.18
2023-03-16T23:38:08.342Z,-2.15
2023-03-16T23:40:55.285Z,-2.11
2023-03-16T23:43:45.249Z,-2.05
2023-03-16T23:46:33.327Z,-1.98
2023-03-16T23:49:23.988Z,-1.90
2023-03-16T23:52:12.984Z,-1.82
2023-03-16T23:55:00.803Z,-1.76
2023-03-16T23:57:48.156Z,-1.66
